createdAt,value
2023-05-21T00:01:27.557Z,1.90
2023-05-21T00:03:54.474Z,2.13
2023-05-21T00:06:23.235Z,3.25
2023-05-21T00:08:50.210Z,7.60
2023-05-21T00:11:17.070Z,3.20
2023-05-21T00:13:43.954Z,3.10
2023-05-21T00:16:11.304Z,3.63
2023-05-21T00:18:39.498Z,1.42
2023-05-21T00:21:06.733Z,1.33
2023-05-21T00:23:34.123Z,5.03
2023-05-21T00:26:01.381Z,2.15
2023-05-21T00:28:28.409Z,4.38
2023-05-21T00:30:55.571Z,5.20
2023-05-21T00:33:22.906Z,2.42
2023-05-21T00:35:49.759Z,2.83
2023-05-21T00:38:18.551Z,2.95
2023-05-21T00:40:45.454Z,5.10
2023-05-21T00:43:14.291Z,2.53
2023-05-21T00:45:44.715Z,8.38
2023-05-21T00:48:12.775Z,2.05
2023-05-21T00:50:40.722Z,3.63
2023-05-21T00:53:15.424Z,1.95
2023-05-21T00:55:42.352Z,3.63
2023-05-21T00:58:09.276Z,2.67
2023-05-21T01:00:37.487Z,3.35
2023-05-21T01:03:05.092Z,2.17
2023-05-21T01:05:32.564Z,2.95
2023-05-21T01:07:59.875Z,3.05
2023-05-21T01:10:27.295Z,6.18
2023-05-21T01:12:56.067Z,3.85
2023-05-21T01:15:23.236Z,2.67
2023-05-21T01:17:51.599Z,1.92
2023-05-21T01:20:20.230Z,5.25
2023-05-21T01:23:02.394Z,4.18
2023-05-21T01:25:33.233Z,3.92
2023-05-21T01:28:00.176Z,3.15
2023-05-21T01:30:27.670Z,4.90
2023-05-21T01:33:05.104Z,2.95
2023-05-21T01:36:04.377Z,2.45
2023-05-21T01:38:41.492Z,3.75
2023-05-21T01:41:13.544Z,4.47
2023-05-21T01:43:44.250Z,5.88
2023-05-21T01:46:15.277Z,5.03
2023-05-21T01:48:43.638Z,3.30
2023-05-21T01:51:10.788Z,6.15
2023-05-21T01:53:40.748Z,3.63
2023-05-21T01:56:08.121Z,8.43
2023-05-21T01:58:35.022Z,2.97
2023-05-21T02:01:02.864Z,4.13
2023-05-21T02:03:31.269Z,6.78
2023-05-21T02:05:58.617Z,3.55
2023-05-21T02:08:25.678Z,6.20
2023-05-21T02:10:52.819Z,7.05
2023-05-21T02:13:21.435Z,4.72
2023-05-21T02:15:49.248Z,3.33
2023-05-21T02:18:16.936Z,6.47
2023-05-21T02:20:44.003Z,5.15
2023-05-21T02:23:17.361Z,9.07
2023-05-21T02:25:44.462Z,3.78
2023-05-21T02:28:14.320Z,5.20
2023-05-21T02:30:41.195Z,7.45
2023-05-21T02:33:09.206Z,4.35
2023-05-21T02:35:36.792Z,6.63
2023-05-21T02:38:03.909Z,6.97
2023-05-21T02:40:30.902Z,6.43
2023-05-21T02:42:57.716Z,4.13
2023-05-21T02:45:24.869Z,5.07
2023-05-21T02:47:51.776Z,3.97
2023-05-21T02:50:18.837Z,3.78
2023-05-21T02:52:55.889Z,4.70
2023-05-21T02:55:23.318Z,8.02
2023-05-21T02:57:50.128Z,4.53
2023-05-21T03:00:17.265Z,5.70
2023-05-21T03:03:10.021Z,3.10
2023-05-21T03:05:37.268Z,4.13
2023-05-21T03:08:04.409Z,4.40
2023-05-21T03:10:31.554Z,3.65
2023-05-21T03:12:58.576Z,6.45
2023-05-21T03:15:26.164Z,6.18
2023-05-21T03:17:54.606Z,5.72
2023-05-21T03:20:21.495Z,4.60
2023-05-21T03:23:16.681Z,4.85
2023-05-21T03:25:44.023Z,4.13
2023-05-21T03:28:10.926Z,3.92
2023-05-21T03:30:38.532Z,3.53
2023-05-21T03:33:06.626Z,6.25
2023-05-21T03:35:33.915Z,6.97
2023-05-21T03:38:01.828Z,5.03
2023-05-21T03:40:28.705Z,6.35
2023-05-21T03:42:55.614Z,4.85
2023-05-21T03:45:22.430Z,3.60
2023-05-21T03:47:49.481Z,4.72
2023-05-21T03:50:16.888Z,4.90
2023-05-21T03:52:43.858Z,5.65
2023-05-21T03:55:10.913Z,4.15
2023-05-21T03:57:37.826Z,7.72
2023-05-21T04:00:06.376Z,5.53
2023-05-21T04:02:33.297Z,6.72
2023-05-21T04:05:00.319Z,8.63
2023-05-21T04:07:27.311Z,6.32
2023-05-21T04:09:54.303Z,6.20
2023-05-21T04:12:21.536Z,7.70
2023-05-21T04:14:48.596Z,5.18
2023-05-21T04:17:15.475Z,6.82
2023-05-21T04:19:42.341Z,6.90
2023-05-21T04:22:11.275Z,5.32
2023-05-21T04:24:38.578Z,5.72
2023-05-21T04:27:06.064Z,8.93
2023-05-21T04:29:32.909Z,8.35
2023-05-21T04:31:59.799Z,5.72
2023-05-21T04:34:26.634Z,4.75
2023-05-21T04:36:53.988Z,7.47
2023-05-21T04:39:20.996Z,7.78
2023-05-21T04:41:50.794Z,6.50
2023-05-21T04:44:25.661Z,6.63
2023-05-21T04:46:52.771Z,6.03
2023-05-21T04:49:21.003Z,8.55
2023-05-21T04:51:54.736Z,5.32
2023-05-21T04:54:21.556Z,4.05
2023-05-21T04:56:48.515Z,3.85
2023-05-21T04:59:16.063Z,6.03
2023-05-21T05:01:44.046Z,3.67
2023-05-21T05:04:11.096Z,4.55
2023-05-21T05:06:37.954Z,3.72
2023-05-21T05:09:04.880Z,5.47
2023-05-21T05:11:31.791Z,4.47
2023-05-21T05:13:58.673Z,5.70
2023-05-21T05:16:27.977Z,4.53
2023-05-21T05:18:55.131Z,4.45
2023-05-21T05:21:23.598Z,9.23
2023-05-21T05:23:50.504Z,2.13
2023-05-21T05:26:17.404Z,4.32
2023-05-21T05:28:45.838Z,3.40
2023-05-21T05:31:12.785Z,5.78
2023-05-21T05:33:41.050Z,4.60
2023-05-21T05:36:08.308Z,10.00
2023-05-21T05:38:36.066Z,3.88
2023-05-21T05:41:02.948Z,4.20
2023-05-21T05:43:32.617Z,5.68
2023-05-21T05:46:00.184Z,6.10
2023-05-21T05:48:27.159Z,4.45
2023-05-21T05:50:57.162Z,3.33
2023-05-21T05:53:24.403Z,8.68
2023-05-21T05:55:51.221Z,6.63
2023-05-21T05:58:18.102Z,5.85
2023-05-21T06:00:45.061Z,4.25
2023-05-21T06:03:12.792Z,5.32
2023-05-21T06:05:39.941Z,7.38
2023-05-21T06:08:07.046Z,4.07
2023-05-21T06:10:34.039Z,4.80
2023-05-21T06:13:00.982Z,2.60
2023-05-21T06:15:27.938Z,4.03
2023-05-21T06:17:54.796Z,3.45
2023-05-21T06:20:21.757Z,4.05
2023-05-21T06:22:48.613Z,4.57
2023-05-21T06:25:16.220Z,9.15
2023-05-21T06:27:43.246Z,3.80
2023-05-21T06:30:10.521Z,5.65
2023-05-21T06:32:37.543Z,7.28
2023-05-21T06:35:04.840Z,6.72
2023-05-21T06:37:31.697Z,4.13
2023-05-21T06:39:58.513Z,6.15
2023-05-21T06:42:25.630Z,4.28
2023-05-21T06:44:52.488Z,5.40
2023-05-21T06:47:19.360Z,4.32
2023-05-21T06:49:46.250Z,3.00
2023-05-21T06:52:13.121Z,6.65
2023-05-21T06:54:40.020Z,3.45
2023-05-21T06:57:06.931Z,5.20
2023-05-21T06:59:33.788Z,2.88
2023-05-21T07:02:02.331Z,4.68
2023-05-21T07:04:30.926Z,5.25
2023-05-21T07:06:57.815Z,3.00
2023-05-21T07:09:24.629Z,2.80
2023-05-21T07:11:53.016Z,3.90
2023-05-21T07:14:19.961Z,9.02
2023-05-21T07:16:46.899Z,9.10
2023-05-21T07:19:15.341Z,4.20
2023-05-21T07:21:42.428Z,3.28
2023-05-21T07:24:09.332Z,5.25
2023-05-21T07:26:36.311Z,3.03
2023-05-21T07:29:06.579Z,5.55
2023-05-21T07:31:36.877Z,2.92
2023-05-21T07:34:03.837Z,3.97
2023-05-21T07:36:31.207Z,4.32
2023-05-21T07:38:58.085Z,6.05
2023-05-21T07:41:25.001Z,3.47
2023-05-21T07:43:52.003Z,5.93
2023-05-21T07:46:18.967Z,3.72
2023-05-21T07:48:46.517Z,3.60
2023-05-21T07:51:13.918Z,9.82
2023-05-21T07:53:41.040Z,3.95
2023-05-21T07:56:08.050Z,6.97
2023-05-21T07:58:35.309Z,4.47
2023-05-21T08:01:02.951Z,3.28
2023-05-21T08:03:33.640Z,5.97
2023-05-21T08:06:00.711Z,4.40
2023-05-21T08:08:27.641Z,9.73
2023-05-21T08:10:54.782Z,4.60
2023-05-21T08:13:21.754Z,4.22
2023-05-21T08:15:51.978Z,4.68
2023-05-21T08:18:20.576Z,4.47
2023-05-21T08:20:48.422Z,5.53
2023-05-21T08:23:15.414Z,3.53
2023-05-21T08:25:42.353Z,4.50
2023-05-21T08:28:09.268Z,3.83
2023-05-21T08:30:38.398Z,5.03
2023-05-21T08:33:05.405Z,6.50
2023-05-21T08:35:32.283Z,3.72
2023-05-21T08:37:59.521Z,6.13
2023-05-21T08:40:26.422Z,6.80
2023-05-21T08:42:53.459Z,5.47
2023-05-21T08:45:23.797Z,5.05
2023-05-21T08:47:59.640Z,5.22
2023-05-21T08:50:28.108Z,5.75
2023-05-21T08:52:55.530Z,4.97
2023-05-21T08:55:23.658Z,5.55
2023-05-21T08:57:52.408Z,10.35
2023-05-21T09:00:21.134Z,6.95
2023-05-21T09:02:48.242Z,4.47
2023-05-21T09:05:16.324Z,8.00
2023-05-21T09:07:53.036Z,5.22
2023-05-21T09:10:24.541Z,7.30
2023-05-21T09:12:51.495Z,3.78
2023-05-21T09:15:18.759Z,3.30
2023-05-21T09:17:49.063Z,6.18
2023-05-21T09:20:16.664Z,4.15
2023-05-21T09:22:50.838Z,4.72
2023-05-21T09:25:23.099Z,5.47
2023-05-21T09:27:50.450Z,3.30
2023-05-21T09:30:18.167Z,6.43
2023-05-21T09:32:46.148Z,3.95
2023-05-21T09:35:15.143Z,6.65
2023-05-21T09:37:45.993Z,6.90
2023-05-21T09:40:15.362Z,12.48
2023-05-21T09:42:47.884Z,5.63
2023-05-21T09:45:26.162Z,4.57
2023-05-21T09:47:54.829Z,5.45
2023-05-21T09:50:28.079Z,5.00
2023-05-21T09:52:56.167Z,9.75
2023-05-21T09:55:23.956Z,40.63
2023-05-21T09:57:51.461Z,13.93
2023-05-21T10:00:27.441Z,14.70
2023-05-21T10:02:55.840Z,5.43
2023-05-21T10:05:27.602Z,5.28
2023-05-21T10:08:02.232Z,5.30
2023-05-21T10:10:30.983Z,4.93
2023-05-21T10:13:09.072Z,4.85
2023-05-21T10:15:42.398Z,6.97
2023-05-21T10:18:10.551Z,7.03
2023-05-21T10:20:38.355Z,8.02
2023-05-21T10:23:05.578Z,5.53
2023-05-21T10:25:32.840Z,7.13
2023-05-21T10:27:59.684Z,5.75
2023-05-21T10:30:27.258Z,10.10
2023-05-21T10:32:56.658Z,5.47
2023-05-21T10:35:24.048Z,7.82
2023-05-21T10:37:52.018Z,7.38
2023-05-21T10:40:18.915Z,7.60
2023-05-21T10:42:58.082Z,8.13
2023-05-21T10:46:06.801Z,10.55
2023-05-21T10:48:42.499Z,8.70
2023-05-21T10:51:25.772Z,7.68
2023-05-21T10:54:14.399Z,8.40
2023-05-21T10:56:59.742Z,7.80
2023-05-21T10:59:36.354Z,7.88
2023-05-21T11:02:05.714Z,7.45
2023-05-21T11:04:33.011Z,11.77
2023-05-21T11:06:59.926Z,10.30
2023-05-21T11:09:27.052Z,8.15
2023-05-21T11:11:58.753Z,6.38
2023-05-21T11:14:43.048Z,7.45
2023-05-21T11:17:16.361Z,10.60
2023-05-21T11:19:47.336Z,7.95
2023-05-21T11:22:21.833Z,7.35
2023-05-21T11:24:51.206Z,7.30
2023-05-21T11:27:39.789Z,8.70
2023-05-21T11:30:15.852Z,8.45
2023-05-21T11:33:10.866Z,11.48
2023-05-21T11:35:59.407Z,10.45
2023-05-21T11:38:31.696Z,8.02
2023-05-21T11:41:03.546Z,7.43
2023-05-21T11:43:31.035Z,7.15
2023-05-21T11:45:59.292Z,7.10
2023-05-21T11:48:28.429Z,5.97
2023-05-21T11:50:57.497Z,10.45
2023-05-21T11:53:24.415Z,8.60
2023-05-21T11:56:03.671Z,8.95
2023-05-21T11:58:31.887Z,10.05
2023-05-21T12:00:58.726Z,11.55
2023-05-21T12:03:27.294Z,12.45
2023-05-21T12:05:54.715Z,8.77
2023-05-21T12:08:28.061Z,7.90
2023-05-21T12:13:23.389Z,8.30
2023-05-21T12:15:50.704Z,7.93
2023-05-21T12:18:17.608Z,9.30
2023-05-21T12:20:44.835Z,11.93
2023-05-21T12:23:30.362Z,8.05
2023-05-21T12:25:57.381Z,12.10
2023-05-21T12:28:24.879Z,9.80
2023-05-21T12:30:53.496Z,8.07
2023-05-21T12:33:21.630Z,6.43
2023-05-21T12:35:50.452Z,11.85
2023-05-21T12:38:17.539Z,7.43
2023-05-21T12:40:45.690Z,10.20
2023-05-21T12:43:13.050Z,9.32
2023-05-21T12:45:40.635Z,9.02
2023-05-21T12:48:08.233Z,11.55
2023-05-21T12:50:41.367Z,11.65
2023-05-21T12:53:11.124Z,7.07
2023-05-21T12:55:37.973Z,9.70
2023-05-21T12:58:10.669Z,8.98
2023-05-21T13:00:38.636Z,7.72
2023-05-21T13:03:16.516Z,9.00
2023-05-21T13:05:43.757Z,8.52
2023-05-21T13:08:11.325Z,12.93
2023-05-21T13:10:40.973Z,9.27
2023-05-21T13:13:07.896Z,10.75
2023-05-21T13:15:34.820Z,7.47
2023-05-21T13:18:02.151Z,7.80
2023-05-21T13:20:29.512Z,11.63
2023-05-21T13:22:56.645Z,10.75
2023-05-21T13:25:28.387Z,10.23
2023-05-21T13:27:56.125Z,12.82
2023-05-21T13:30:23.096Z,11.70
2023-05-21T13:32:50.264Z,12.90
2023-05-21T13:35:17.670Z,11.95
2023-05-21T13:37:44.974Z,8.48
2023-05-21T13:40:16.977Z,8.55
2023-05-21T13:42:48.806Z,10.68
2023-05-21T13:45:18.086Z,12.65
2023-05-21T13:47:46.371Z,10.77
2023-05-21T13:50:13.969Z,12.57
2023-05-21T13:52:41.003Z,8.35
2023-05-21T13:55:08.478Z,6.60
2023-05-21T13:57:35.386Z,9.77
2023-05-21T14:00:03.233Z,10.23
2023-05-21T14:02:30.257Z,8.07
2023-05-21T14:04:57.822Z,10.05
2023-05-21T14:07:24.721Z,6.97
2023-05-21T14:09:52.403Z,12.70
2023-05-21T14:12:19.392Z,8.57
2023-05-21T14:14:46.246Z,9.50
2023-05-21T14:17:13.158Z,8.85
2023-05-21T14:19:40.068Z,15.45
2023-05-21T14:22:06.901Z,10.93
2023-05-21T14:24:33.755Z,10.90
2023-05-21T14:27:00.724Z,12.20
2023-05-21T14:29:27.574Z,12.35
2023-05-21T14:31:54.509Z,14.10
2023-05-21T14:34:21.425Z,10.63
2023-05-21T14:36:48.357Z,11.38
2023-05-21T14:39:15.501Z,9.18
2023-05-21T14:41:42.692Z,10.45
2023-05-21T14:44:09.566Z,12.02
2023-05-21T14:46:36.858Z,9.45
2023-05-21T14:49:04.005Z,13.38
2023-05-21T14:51:31.694Z,8.65
2023-05-21T14:53:58.878Z,11.48
2023-05-21T14:56:28.131Z,8.32
2023-05-21T14:58:57.329Z,9.38
2023-05-21T15:01:24.345Z,8.98
2023-05-21T15:03:51.632Z,9.13
2023-05-21T15:06:18.566Z,9.63
2023-05-21T15:08:45.418Z,10.65
2023-05-21T15:11:12.269Z,11.82
2023-05-21T15:13:39.615Z,14.98
2023-05-21T15:16:06.825Z,11.07
2023-05-21T15:18:34.155Z,17.38
2023-05-21T15:21:01.198Z,11.73
2023-05-21T15:23:28.368Z,11.43
2023-05-21T15:25:55.463Z,9.18
2023-05-21T15:28:23.182Z,14.18
2023-05-21T15:30:50.363Z,10.75
2023-05-21T15:33:17.489Z,10.82
2023-05-21T15:35:44.885Z,11.05
2023-05-21T15:38:12.151Z,10.43
2023-05-21T15:47:57.747Z,9.98
2023-05-21T15:50:25.841Z,15.55
2023-05-21T15:52:53.549Z,11.73
2023-05-21T15:55:20.997Z,13.32
2023-05-21T15:57:47.913Z,12.27
2023-05-21T16:00:15.178Z,12.32
2023-05-21T16:02:42.294Z,10.23
2023-05-21T16:05:09.646Z,9.57
2023-05-21T16:07:38.230Z,10.95
2023-05-21T16:10:06.509Z,11.48
2023-05-21T16:12:33.503Z,8.95
2023-05-21T16:15:00.808Z,12.60
2023-05-21T16:17:27.987Z,13.27
2023-05-21T16:19:54.874Z,11.98
2023-05-21T16:22:23.255Z,11.93
2023-05-21T16:24:50.246Z,13.63
2023-05-21T16:27:17.165Z,11.75
2023-05-21T16:29:44.309Z,13.40
2023-05-21T16:32:13.194Z,13.55
2023-05-21T16:34:40.168Z,11.85
2023-05-21T16:37:09.097Z,9.60
2023-05-21T16:39:36.008Z,11.70
2023-05-21T16:42:03.093Z,13.68
2023-05-21T16:44:31.725Z,11.88
2023-05-21T16:46:59.841Z,15.93
2023-05-21T16:49:27.728Z,11.48
2023-05-21T16:51:54.723Z,13.85
2023-05-21T16:54:21.840Z,13.45
2023-05-21T16:56:48.804Z,9.63
2023-05-21T16:59:15.906Z,12.25
2023-05-21T17:01:42.978Z,9.95
2023-05-21T17:04:10.009Z,11.07
2023-05-21T17:06:36.952Z,13.25
2023-05-21T17:09:04.100Z,12.85
2023-05-21T17:11:31.071Z,16.67
2023-05-21T17:13:58.002Z,12.35
2023-05-21T17:16:26.252Z,11.77
2023-05-21T17:18:53.183Z,18.15
2023-05-21T17:21:20.155Z,13.10
2023-05-21T17:23:47.276Z,16.60
2023-05-21T17:26:14.528Z,20.50
2023-05-21T17:28:41.656Z,16.15
2023-05-21T17:31:08.905Z,11.77
2023-05-21T17:33:37.355Z,13.32
2023-05-21T17:36:05.003Z,15.23
2023-05-21T17:38:31.952Z,17.25
2023-05-21T17:40:59.254Z,15.13
2023-05-21T17:43:27.635Z,15.27
2023-05-21T17:45:54.550Z,11.90
2023-05-21T17:48:21.664Z,9.70
2023-05-21T17:50:48.736Z,11.65
2023-05-21T17:53:16.347Z,14.35
2023-05-21T17:55:43.259Z,12.85
2023-05-21T17:58:10.190Z,13.20
2023-05-21T18:00:37.390Z,11.15
2023-05-21T18:03:04.623Z,19.98
2023-05-21T18:05:31.709Z,18.17
2023-05-21T18:08:01.096Z,15.48
2023-05-21T18:10:28.046Z,12.18
2023-05-21T18:12:55.029Z,14.38
2023-05-21T18:15:21.930Z,16.08
2023-05-21T18:17:48.941Z,14.85
2023-05-21T18:20:16.011Z,15.27
2023-05-21T18:22:43.956Z,15.52
2023-05-21T18:25:11.205Z,12.63
2023-05-21T18:27:38.103Z,12.20
2023-05-21T18:30:06.471Z,11.95
2023-05-21T18:32:34.450Z,17.35
2023-05-21T18:35:01.374Z,14.98
2023-05-21T18:37:29.286Z,14.18
2023-05-21T18:39:56.167Z,12.95
2023-05-21T18:42:23.053Z,12.82
2023-05-21T18:44:53.003Z,16.58
2023-05-21T18:47:19.934Z,11.85
2023-05-21T18:49:47.333Z,16.38
2023-05-21T18:52:14.348Z,16.38
2023-05-21T18:54:41.191Z,12.13
2023-05-21T18:57:08.083Z,14.63
2023-05-21T18:59:35.308Z,18.85
2023-05-21T19:02:04.010Z,15.50
2023-05-21T19:04:31.425Z,19.73
2023-05-21T19:06:58.703Z,19.30
2023-05-21T19:09:27.886Z,15.93
2023-05-21T19:11:55.590Z,22.95
2023-05-21T19:14:22.476Z,18.25
2023-05-21T19:16:49.354Z,18.30
2023-05-21T19:19:16.854Z,18.05
2023-05-21T19:21:43.859Z,17.27
2023-05-21T19:24:10.890Z,13.15
2023-05-21T19:26:37.805Z,14.60
2023-05-21T19:29:04.798Z,15.07
2023-05-21T19:31:31.751Z,13.35
2023-05-21T19:33:59.195Z,14.55
2023-05-21T19:36:26.861Z,15.13
2023-05-21T19:38:54.682Z,18.50
2023-05-21T19:41:22.092Z,14.00
2023-05-21T19:43:48.946Z,16.73
2023-05-21T19:46:19.749Z,20.08
2023-05-21T19:48:47.458Z,14.80
2023-05-21T19:51:14.360Z,14.93
2023-05-21T19:53:41.389Z,18.08
2023-05-21T19:56:08.300Z,18.55
2023-05-21T19:58:35.298Z,23.20
2023-05-21T20:01:03.544Z,29.35
2023-05-21T20:03:37.750Z,17.10
2023-05-21T20:06:05.037Z,19.95
2023-05-21T20:08:32.081Z,23.33
2023-05-21T20:11:01.124Z,22.77
2023-05-21T20:13:28.132Z,22.30
2023-05-21T20:15:55.040Z,15.95
2023-05-21T20:18:24.506Z,16.75
2023-05-21T20:20:51.585Z,24.52
2023-05-21T20:23:18.517Z,20.00
2023-05-21T20:25:45.407Z,17.45
2023-05-21T20:28:12.450Z,28.30
2023-05-21T20:30:53.723Z,22.40
2023-05-21T20:33:20.793Z,19.58
2023-05-21T20:35:47.679Z,20.15
2023-05-21T20:38:15.898Z,15.40
2023-05-21T20:40:44.136Z,15.70
2023-05-21T20:43:18.777Z,27.02
2023-05-21T20:45:46.414Z,26.02
2023-05-21T20:48:14.868Z,18.00
2023-05-21T20:50:41.965Z,18.20
2023-05-21T20:53:08.886Z,16.92
2023-05-21T20:55:35.786Z,18.05
2023-05-21T20:58:03.993Z,21.63
2023-05-21T21:00:31.977Z,20.10
2023-05-21T21:03:01.101Z,24.55
2023-05-21T21:05:28.436Z,23.00
2023-05-21T21:07:56.082Z,23.77
2023-05-21T21:10:23.124Z,25.80
2023-05-21T21:12:50.361Z,21.67
2023-05-21T21:15:17.383Z,26.23
2023-05-21T21:17:44.367Z,25.25
2023-05-21T21:20:12.887Z,24.15
2023-05-21T21:22:40.046Z,23.00
2023-05-21T21:25:07.304Z,22.92
2023-05-21T21:27:34.745Z,26.10
2023-05-21T21:30:01.687Z,25.33
2023-05-21T21:32:28.689Z,25.77
2023-05-21T21:34:55.635Z,21.45
2023-05-21T21:37:22.608Z,22.60
2023-05-21T21:39:49.467Z,26.30
2023-05-21T21:42:16.350Z,23.35
2023-05-21T21:44:43.279Z,26.35
2023-05-21T21:47:10.736Z,25.17
2023-05-21T21:49:37.673Z,23.33
2023-05-21T21:52:04.820Z,21.15
2023-05-21T21:54:31.666Z,22.48
2023-05-21T21:56:58.533Z,24.85
2023-05-21T21:59:25.544Z,25.98
2023-05-21T22:01:52.722Z,26.38
2023-05-21T22:04:19.658Z,25.08
2023-05-21T22:06:46.772Z,23.92
2023-05-21T22:09:14.044Z,20.13
2023-05-21T22:11:41.045Z,23.25
2023-05-21T22:14:08.559Z,22.35
2023-05-21T22:16:36.542Z,23.17
2023-05-21T22:19:03.853Z,19.40
2023-05-21T22:21:32.954Z,22.02
2023-05-21T22:24:00.451Z,21.35
2023-05-21T22:26:27.304Z,26.38
2023-05-21T22:28:54.169Z,27.85
2023-05-21T22:31:21.199Z,21.17
2023-05-21T22:33:48.077Z,30.25
2023-05-21T22:36:14.924Z,23.50
2023-05-21T22:38:41.802Z,19.23
2023-05-21T22:41:09.959Z,25.40
2023-05-21T22:43:37.434Z,22.60
2023-05-21T22:46:04.377Z,27.10
2023-05-21T22:48:31.314Z,20.35
2023-05-21T22:50:58.411Z,21.10
2023-05-21T22:53:26.018Z,17.88
2023-05-21T22:55:53.208Z,21.23
2023-05-21T22:58:20.154Z,16.55
2023-05-21T23:00:48.099Z,21.23
2023-05-21T23:03:15.085Z,19.38
2023-05-21T23:05:42.085Z,22.95
2023-05-21T23:08:08.978Z,15.32
2023-05-21T23:10:36.036Z,20.40
2023-05-21T23:13:02.977Z,19.23
2023-05-21T23:15:30.563Z,16.27
2023-05-21T23:17:57.806Z,16.83
2023-05-21T23:20:24.813Z,17.40
2023-05-21T23:22:52.389Z,15.95
2023-05-21T23:25:19.173Z,18.02
2023-05-21T23:27:46.153Z,16.33
2023-05-21T23:30:13.118Z,18.40
2023-05-21T23:32:40.023Z,17.20
2023-05-21T23:35:08.152Z,17.55
2023-05-21T23:37:34.996Z,16.60
2023-05-21T23:40:01.833Z,19.55
2023-05-21T23:42:28.830Z,13.85
2023-05-21T23:44:55.719Z,16.95
2023-05-21T23:47:22.513Z,17.73
2023-05-21T23:49:49.510Z,19.60
2023-05-21T23:52:18.216Z,14.80
2023-05-21T23:54:45.110Z,19.25
2023-05-21T23:57:13.303Z,18.65
2023-05-21T23:59:40.542Z,18.08
